Jeppesen Maersk — OWTW2 — position and weather

sailwx.info

Track history (hours):
 
Tides and Currents Weather Stations Pressure Air Temp Water Temp Dewpoint Dewpoint Depression Visibility Wind Speed Wind Dir Waves Ship Positions

Jeppesen Maersk

Last reported at 2015-May-04 06:31 UTC. Time now 2015-May-04 10:01 UTC.
Position S 27°14' E 153°50'.

Type: Ship (hazmat cat A). MMSI: 219953000.

Date/timePositionNaut miles runAvg speedWind from/ knotsBaromVisibWave heightAir tempDewpointWater temp
2015-May-04 06:31S 27°14' E 153°50'1110.8
2015-May-04 05:32S 27°03' E 153°48'1111.2
2015-May-04 04:32S 26°52' E 153°47'1111.2
2015-May-04 03:33S 26°41' E 153°46'1111.3
2015-May-04 02:33S 26°30' E 153°45'1211.5
2015-May-04 01:30S 26°18' E 153°44'1716.7
2015-May-04 00:29S 26°01' E 153°42'1212.1
2015-May-03 23:31S 25°49' E 153°41'1111.6
2015-May-03 22:34S 25°39' E 153°40'1312.4
2015-May-03 21:32S 25°26' E 153°39'1111.2
2015-May-03 20:33S 25°15' E 153°38'10312.1
2015-May-03 12:00S 23°42' E 152°48'6510.9 270 / 51013.610.8 23.517.1
2015-May-03 06:00S 22°54' E 152°00'   270 / 101011.227.0 27.119.6
Track history (hours):
 
Tides and Currents Weather Stations Pressure Air Temp Water Temp Dewpoint Dewpoint Depression Visibility Wind Speed Wind Dir Waves Ship Positions

Jeppesen Maersk

Last reported at 2015-May-04 06:31 UTC. Time now 2015-May-04 10:01 UTC.
Position S 27°14' E 153°50'.

Type: Ship (hazmat cat A). MMSI: 219953000.

Date/timePositionNaut miles runAvg speedWind from/ knotsBaromVisibWave heightAir tempDewpointWater temp
2015-May-04 06:31S 27°14' E 153°50'1110.8
2015-May-04 05:32S 27°03' E 153°48'1111.2
2015-May-04 04:32S 26°52' E 153°47'1111.2
2015-May-04 03:33S 26°41' E 153°46'1111.3
2015-May-04 02:33S 26°30' E 153°45'1211.5
2015-May-04 01:30S 26°18' E 153°44'1716.7
2015-May-04 00:29S 26°01' E 153°42'1212.1
2015-May-03 23:31S 25°49' E 153°41'1111.6
2015-May-03 22:34S 25°39' E 153°40'1312.4
2015-May-03 21:32S 25°26' E 153°39'1111.2
2015-May-03 20:33S 25°15' E 153°38'10312.1
2015-May-03 12:00S 23°42' E 152°48'6510.9 270 / 51013.610.8 23.517.1
2015-May-03 06:00S 22°54' E 152°00'   270 / 101011.227.0 27.119.6

Dump ship's entire track history